createdAt,value
2019-03-27T00:00:30.762Z,82.50
2019-03-27T00:02:51.973Z,82.00
2019-03-27T00:05:13.775Z,82.50
2019-03-27T00:07:35.162Z,81.90
2019-03-27T00:09:56.367Z,81.40
2019-03-27T00:12:17.580Z,81.80
2019-03-27T00:14:38.789Z,81.60
2019-03-27T00:17:00.083Z,81.60
2019-03-27T00:19:35.210Z,82.10
2019-03-27T00:21:56.515Z,81.90
2019-03-27T00:24:17.819Z,82.40
2019-03-27T00:26:39.006Z,83.00
2019-03-27T00:29:00.242Z,83.00
2019-03-27T00:31:21.442Z,83.50
2019-03-27T00:33:43.789Z,84.40
2019-03-27T00:36:05.017Z,84.50
2019-03-27T00:38:26.313Z,83.80
2019-03-27T00:40:47.521Z,83.40
2019-03-27T00:43:08.806Z,83.70
2019-03-27T00:45:30.019Z,84.00
2019-03-27T00:47:51.216Z,83.10
2019-03-27T00:50:12.537Z,82.60
2019-03-27T00:52:33.737Z,82.40
2019-03-27T00:54:54.935Z,82.10
2019-03-27T00:57:17.351Z,81.90
2019-03-27T00:59:38.648Z,81.80
2019-03-27T01:01:59.873Z,81.60
2019-03-27T01:04:21.392Z,81.60
2019-03-27T01:06:42.661Z,81.90
2019-03-27T01:09:04.248Z,82.20
2019-03-27T01:11:25.543Z,81.90
2019-03-27T01:13:46.742Z,81.80
2019-03-27T01:16:08.078Z,82.00
2019-03-27T01:18:29.266Z,82.30
2019-03-27T01:20:50.486Z,82.40
2019-03-27T01:23:11.667Z,82.90
2019-03-27T01:25:32.877Z,82.50
2019-03-27T01:27:54.066Z,82.60
2019-03-27T01:30:15.984Z,82.90
2019-03-27T01:32:37.288Z,82.50
2019-03-27T01:34:58.499Z,82.00
2019-03-27T01:37:20.773Z,82.10
2019-03-27T01:39:41.966Z,81.70
2019-03-27T01:42:03.154Z,81.80
2019-03-27T01:44:24.452Z,81.90
2019-03-27T01:46:45.638Z,82.40
2019-03-27T01:49:06.851Z,82.30
2019-03-27T01:51:28.062Z,82.20
2019-03-27T01:53:49.246Z,82.40
2019-03-27T01:56:10.435Z,82.90
2019-03-27T01:58:32.916Z,82.10
2019-03-27T02:00:54.293Z,82.60
2019-03-27T02:03:15.542Z,83.40
2019-03-27T02:05:36.825Z,83.30
2019-03-27T02:07:58.044Z,83.20
2019-03-27T02:10:19.240Z,83.30
2019-03-27T02:12:40.431Z,83.40
2019-03-27T02:15:03.196Z,83.40
2019-03-27T02:17:24.695Z,83.40
2019-03-27T02:19:45.876Z,83.20
2019-03-27T02:22:09.887Z,82.80
2019-03-27T02:24:31.067Z,83.10
2019-03-27T02:26:52.267Z,83.20
2019-03-27T02:29:13.442Z,83.40
2019-03-27T02:31:34.650Z,83.30
2019-03-27T02:33:55.966Z,83.10
2019-03-27T02:36:17.664Z,83.20
2019-03-27T02:38:38.957Z,83.20
2019-03-27T02:41:00.255Z,83.10
2019-03-27T02:43:21.458Z,83.30
2019-03-27T02:45:42.770Z,83.20
2019-03-27T02:48:03.944Z,83.30
2019-03-27T02:50:25.426Z,83.20
2019-03-27T02:52:46.615Z,83.10
2019-03-27T02:55:07.898Z,83.20
2019-03-27T02:57:29.094Z,83.20
2019-03-27T02:59:50.276Z,83.20
2019-03-27T03:02:11.474Z,83.30
2019-03-27T03:04:32.769Z,83.50
2019-03-27T03:06:53.971Z,83.70
2019-03-27T03:09:15.252Z,83.60
2019-03-27T03:11:36.453Z,83.70
2019-03-27T03:13:57.659Z,83.90
2019-03-27T03:16:18.865Z,83.70
2019-03-27T03:18:40.046Z,83.80
2019-03-27T03:21:01.236Z,83.60
2019-03-27T03:23:22.517Z,84.10
2019-03-27T03:25:43.741Z,83.60
2019-03-27T03:28:05.134Z,83.50
2019-03-27T03:30:26.358Z,83.70
2019-03-27T03:32:47.639Z,83.90
2019-03-27T03:35:10.090Z,84.00
2019-03-27T03:37:31.367Z,83.80
2019-03-27T03:39:52.551Z,83.80
2019-03-27T03:42:13.749Z,83.90
2019-03-27T03:44:35.141Z,83.80
2019-03-27T03:47:00.277Z,84.00
2019-03-27T03:49:19.535Z,84.10
2019-03-27T03:51:41.254Z,84.30
2019-03-27T03:54:03.543Z,84.10
2019-03-27T03:56:26.446Z,84.00
2019-03-27T03:58:48.634Z,84.20
2019-03-27T04:01:10.364Z,84.60
2019-03-27T04:03:33.569Z,84.80
2019-03-27T04:05:54.746Z,85.10
2019-03-27T04:08:16.041Z,85.30
2019-03-27T04:10:37.213Z,85.20
2019-03-27T04:12:59.512Z,85.00
2019-03-27T04:15:20.685Z,85.40
2019-03-27T04:17:41.891Z,85.30
2019-03-27T04:20:05.656Z,85.30
2019-03-27T04:22:26.849Z,86.00
2019-03-27T04:24:48.014Z,85.20
2019-03-27T04:27:09.230Z,85.50
2019-03-27T04:29:30.429Z,85.50
2019-03-27T04:31:51.614Z,85.50
2019-03-27T04:34:26.240Z,85.50
2019-03-27T04:36:47.427Z,85.60
2019-03-27T04:39:08.993Z,86.40
2019-03-27T04:41:30.187Z,86.60
2019-03-27T04:43:51.369Z,86.60
2019-03-27T04:46:12.569Z,86.70
2019-03-27T04:48:33.814Z,86.70
2019-03-27T04:50:55.077Z,86.60
2019-03-27T04:53:16.279Z,86.60
2019-03-27T04:55:37.476Z,87.20
2019-03-27T04:57:59.490Z,86.60
2019-03-27T05:00:20.816Z,86.50
2019-03-27T05:02:42.016Z,86.60
2019-03-27T05:05:05.935Z,86.70
2019-03-27T05:07:27.222Z,86.80
2019-03-27T05:09:48.558Z,86.70
2019-03-27T05:12:09.955Z,87.70
2019-03-27T05:14:31.484Z,87.30
2019-03-27T05:16:52.823Z,87.30
2019-03-27T05:19:14.178Z,87.80
2019-03-27T05:21:35.743Z,88.10
2019-03-27T05:23:57.016Z,88.20
2019-03-27T05:26:18.367Z,88.30
2019-03-27T05:28:39.663Z,88.90
2019-03-27T05:31:00.953Z,89.10
2019-03-27T05:33:22.197Z,89.10
2019-03-27T05:35:43.418Z,89.10
2019-03-27T05:38:04.935Z,89.50
2019-03-27T05:40:26.157Z,89.70
2019-03-27T05:43:00.029Z,89.80
2019-03-27T05:45:10.569Z,89.80
2019-03-27T05:47:31.832Z,89.70
2019-03-27T05:49:53.062Z,89.30
2019-03-27T05:52:14.234Z,89.60
2019-03-27T05:54:48.621Z,89.80
2019-03-27T05:57:09.797Z,89.30
2019-03-27T05:59:31.126Z,89.50
2019-03-27T06:01:52.355Z,89.20
2019-03-27T06:04:13.870Z,89.10
2019-03-27T06:06:35.085Z,89.10
2019-03-27T06:08:56.335Z,88.60
2019-03-27T06:11:17.508Z,88.40
2019-03-27T06:13:38.738Z,87.40
2019-03-27T06:15:59.949Z,87.40
2019-03-27T06:18:21.157Z,87.10
2019-03-27T06:20:42.486Z,87.00
2019-03-27T06:23:03.786Z,86.50
2019-03-27T06:25:24.987Z,85.80
2019-03-27T06:27:46.598Z,85.10
2019-03-27T06:30:08.622Z,84.60
2019-03-27T06:32:33.397Z,83.90
2019-03-27T06:34:54.622Z,83.60
2019-03-27T06:37:15.827Z,83.10
2019-03-27T06:39:37.269Z,82.80
2019-03-27T06:41:58.470Z,82.40
2019-03-27T06:44:19.667Z,81.10
2019-03-27T06:46:40.848Z,80.90
2019-03-27T06:49:02.054Z,81.10
2019-03-27T06:51:25.171Z,80.10
2019-03-27T06:53:46.515Z,80.00
2019-03-27T06:56:07.709Z,79.20
2019-03-27T06:58:29.006Z,78.50
2019-03-27T07:00:50.206Z,78.20
2019-03-27T07:03:11.414Z,77.90
2019-03-27T07:05:32.728Z,78.20
2019-03-27T07:07:54.249Z,77.00
2019-03-27T07:10:15.562Z,76.50
2019-03-27T07:12:36.750Z,75.30
2019-03-27T07:14:58.059Z,75.50
2019-03-27T07:17:19.252Z,74.70
2019-03-27T07:19:40.429Z,73.50
2019-03-27T07:22:01.768Z,72.80
2019-03-27T07:24:23.437Z,73.00
2019-03-27T07:26:44.639Z,72.10
2019-03-27T07:29:05.805Z,72.10
2019-03-27T07:31:27.011Z,71.50
2019-03-27T07:33:48.292Z,72.30
2019-03-27T07:36:09.607Z,71.10
2019-03-27T07:38:30.814Z,71.40
2019-03-27T07:40:52.012Z,70.90
2019-03-27T07:43:13.222Z,69.70
2019-03-27T07:45:34.426Z,71.00
2019-03-27T07:47:55.836Z,70.60
2019-03-27T07:50:17.071Z,70.30
2019-03-27T07:52:38.247Z,71.40
2019-03-27T07:54:59.455Z,71.40
2019-03-27T07:57:20.722Z,71.90
2019-03-27T07:59:41.998Z,72.00
2019-03-27T08:02:03.230Z,72.50
2019-03-27T08:04:24.439Z,71.80
2019-03-27T08:06:45.649Z,70.90
2019-03-27T08:09:06.827Z,71.00
2019-03-27T08:11:28.178Z,71.00
2019-03-27T08:13:49.464Z,70.80
2019-03-27T08:16:11.860Z,70.70
2019-03-27T08:18:33.045Z,70.80
2019-03-27T08:20:54.330Z,70.50
2019-03-27T08:23:15.548Z,70.50
2019-03-27T08:25:36.872Z,69.60
2019-03-27T08:27:58.366Z,69.50
2019-03-27T08:30:19.761Z,70.20
2019-03-27T08:32:41.039Z,69.80
2019-03-27T08:35:04.369Z,69.50
2019-03-27T08:37:25.701Z,69.60
2019-03-27T08:39:47.200Z,66.10
2019-03-27T08:42:08.429Z,64.80
2019-03-27T08:44:29.818Z,63.80
2019-03-27T08:46:51.021Z,63.40
2019-03-27T08:49:22.013Z,62.90
2019-03-27T08:51:35.628Z,62.80
2019-03-27T08:53:56.844Z,63.30
2019-03-27T08:56:18.222Z,62.70
2019-03-27T08:58:39.422Z,62.10
2019-03-27T09:01:00.642Z,61.70
2019-03-27T09:03:21.854Z,62.30
2019-03-27T09:05:43.183Z,62.80
2019-03-27T09:08:04.403Z,61.70
2019-03-27T09:10:25.681Z,60.30
2019-03-27T09:12:47.137Z,59.80
2019-03-27T09:15:08.826Z,59.70
2019-03-27T09:17:30.069Z,60.10
2019-03-27T09:19:51.269Z,59.90
2019-03-27T09:22:12.573Z,58.90
2019-03-27T09:24:33.758Z,60.10
2019-03-27T09:26:55.021Z,60.30
2019-03-27T09:29:16.298Z,59.50
2019-03-27T09:31:44.644Z,59.20
2019-03-27T09:34:00.749Z,59.10
2019-03-27T09:36:21.937Z,58.10
2019-03-27T09:38:43.242Z,58.50
2019-03-27T09:41:04.416Z,58.20
2019-03-27T09:43:25.629Z,58.40
2019-03-27T09:45:46.908Z,57.90
2019-03-27T09:48:08.104Z,57.50
2019-03-27T09:50:29.295Z,56.80
2019-03-27T09:52:50.690Z,57.60
2019-03-27T09:55:13.779Z,57.90
2019-03-27T09:57:34.986Z,57.20
2019-03-27T09:59:56.179Z,57.00
2019-03-27T10:02:17.428Z,57.50
2019-03-27T10:04:38.773Z,56.30
2019-03-27T10:06:59.990Z,56.10
2019-03-27T10:09:21.213Z,55.90
2019-03-27T10:11:42.771Z,55.20
2019-03-27T10:14:04.414Z,55.20
2019-03-27T10:16:25.621Z,55.00
2019-03-27T10:18:47.583Z,54.70
2019-03-27T10:21:09.302Z,54.30
2019-03-27T10:23:30.601Z,54.20
2019-03-27T10:25:51.794Z,53.30
2019-03-27T10:28:13.001Z,54.00
2019-03-27T10:30:35.375Z,54.20
2019-03-27T10:32:56.582Z,54.60
2019-03-27T10:35:17.942Z,55.00
2019-03-27T10:37:39.178Z,54.40
2019-03-27T10:40:00.382Z,52.50
2019-03-27T10:42:21.659Z,52.60
2019-03-27T10:44:42.839Z,52.90
2019-03-27T10:47:04.071Z,53.00
2019-03-27T10:49:25.256Z,52.60
2019-03-27T10:51:46.446Z,53.10
2019-03-27T10:54:07.647Z,52.70
2019-03-27T10:56:28.822Z,51.40
2019-03-27T10:58:50.017Z,50.50
2019-03-27T11:01:11.545Z,50.00
2019-03-27T11:03:32.756Z,49.90
2019-03-27T11:05:53.979Z,49.90
2019-03-27T11:08:15.216Z,50.80
2019-03-27T11:10:36.452Z,49.00
2019-03-27T11:12:57.662Z,50.10
2019-03-27T11:15:19.058Z,47.90
2019-03-27T11:17:41.632Z,48.90
2019-03-27T11:20:05.822Z,47.10
2019-03-27T11:22:27.026Z,46.50
2019-03-27T11:24:48.212Z,46.20
2019-03-27T11:27:09.635Z,47.50
2019-03-27T11:29:30.841Z,48.70
2019-03-27T11:31:52.014Z,48.50
2019-03-27T11:34:13.222Z,47.00
2019-03-27T11:36:35.332Z,46.60
2019-03-27T11:38:56.607Z,45.70
2019-03-27T11:41:18.141Z,47.00
2019-03-27T11:43:39.346Z,45.50
2019-03-27T11:46:00.736Z,43.70
2019-03-27T11:48:21.943Z,43.70
2019-03-27T11:50:45.329Z,43.10
2019-03-27T11:53:06.213Z,43.50
2019-03-27T11:55:27.521Z,44.90
2019-03-27T11:57:48.710Z,44.90
2019-03-27T12:00:10.921Z,44.80
2019-03-27T12:02:32.201Z,45.40
2019-03-27T12:04:53.410Z,45.40
2019-03-27T12:07:14.743Z,45.20
2019-03-27T12:09:36.042Z,45.30
2019-03-27T12:11:57.367Z,44.80
2019-03-27T12:14:18.659Z,45.20
2019-03-27T12:16:39.862Z,44.20
2019-03-27T12:19:01.358Z,44.10
2019-03-27T12:21:22.628Z,44.40
2019-03-27T12:23:43.923Z,45.10
2019-03-27T12:26:06.162Z,44.70
2019-03-27T12:28:29.890Z,43.80
2019-03-27T12:30:51.114Z,43.80
2019-03-27T12:33:12.307Z,45.20
2019-03-27T12:35:33.538Z,45.60
2019-03-27T12:37:54.740Z,46.10
2019-03-27T12:40:15.971Z,46.40
2019-03-27T12:42:38.438Z,47.00
2019-03-27T12:45:01.842Z,47.00
2019-03-27T12:47:23.402Z,47.70
2019-03-27T12:49:45.107Z,48.00
2019-03-27T12:52:06.434Z,47.70
2019-03-27T12:54:27.637Z,47.90
2019-03-27T12:56:49.054Z,48.10
2019-03-27T12:59:10.392Z,47.60
2019-03-27T13:01:31.582Z,47.10
2019-03-27T13:03:53.018Z,47.10
2019-03-27T13:06:14.234Z,47.40
2019-03-27T13:08:35.638Z,47.90
2019-03-27T13:10:56.891Z,47.20
2019-03-27T13:13:19.134Z,48.10
2019-03-27T13:15:40.433Z,47.20
2019-03-27T13:18:01.622Z,47.10
2019-03-27T13:20:22.951Z,46.50
2019-03-27T13:22:44.313Z,46.80
2019-03-27T13:25:07.237Z,45.50
2019-03-27T13:27:28.745Z,46.20
2019-03-27T13:29:50.043Z,46.30
2019-03-27T13:32:11.321Z,46.30
2019-03-27T13:34:32.565Z,46.00
2019-03-27T13:36:53.758Z,46.70
2019-03-27T13:39:14.953Z,46.10
2019-03-27T13:41:36.165Z,45.80
2019-03-27T13:43:57.349Z,45.60
2019-03-27T13:46:18.544Z,45.90
2019-03-27T13:48:39.729Z,45.80
2019-03-27T13:51:00.957Z,45.60
2019-03-27T13:53:22.136Z,44.90
2019-03-27T13:55:43.313Z,46.30
2019-03-27T13:58:04.515Z,46.60
2019-03-27T14:00:25.811Z,47.00
2019-03-27T14:02:47.025Z,46.90
2019-03-27T14:05:09.736Z,47.20
2019-03-27T14:07:31.257Z,46.50
2019-03-27T14:09:52.442Z,46.50
2019-03-27T14:12:13.635Z,46.90
2019-03-27T14:14:34.841Z,46.50
2019-03-27T14:16:56.051Z,46.80
2019-03-27T14:19:20.876Z,46.10
2019-03-27T14:21:53.983Z,46.00
2019-03-27T14:24:05.248Z,45.90
2019-03-27T14:26:26.458Z,45.90
2019-03-27T14:28:53.470Z,46.20
2019-03-27T14:31:14.668Z,46.30
2019-03-27T14:33:36.137Z,46.10
2019-03-27T14:35:58.032Z,46.10
2019-03-27T14:38:19.665Z,46.00
2019-03-27T14:40:41.249Z,45.60
2019-03-27T14:43:02.481Z,45.60
2019-03-27T14:45:24.419Z,46.00
2019-03-27T14:47:45.894Z,46.00
2019-03-27T14:50:09.361Z,46.20
2019-03-27T14:52:30.640Z,45.70
2019-03-27T14:54:51.809Z,45.60
2019-03-27T14:57:13.120Z,44.80
2019-03-27T14:59:34.441Z,43.90
2019-03-27T15:01:55.635Z,43.40
2019-03-27T15:04:17.373Z,44.20
2019-03-27T15:06:38.594Z,44.00
2019-03-27T15:08:59.819Z,43.20
2019-03-27T15:11:21.256Z,42.90
2019-03-27T15:13:42.460Z,42.80
2019-03-27T15:16:03.835Z,43.40
2019-03-27T15:18:26.244Z,43.60
2019-03-27T15:20:47.542Z,42.80
2019-03-27T15:23:08.793Z,42.40
2019-03-27T15:25:36.111Z,42.30
2019-03-27T15:27:58.850Z,43.30
2019-03-27T15:30:20.102Z,43.40
2019-03-27T15:32:41.730Z,43.80
2019-03-27T15:35:04.730Z,44.10
2019-03-27T15:37:25.952Z,44.50
2019-03-27T15:39:47.213Z,44.80
2019-03-27T15:42:09.302Z,45.10
2019-03-27T15:44:30.891Z,44.60
2019-03-27T15:46:52.077Z,45.10
2019-03-27T15:49:13.276Z,45.20
2019-03-27T15:51:34.503Z,45.40
2019-03-27T15:53:55.786Z,45.10
2019-03-27T15:56:16.977Z,45.60
2019-03-27T15:58:38.162Z,45.50
2019-03-27T16:00:59.370Z,46.00
2019-03-27T16:03:20.580Z,44.90
2019-03-27T16:05:41.803Z,44.50
2019-03-27T16:08:03.141Z,45.10
2019-03-27T16:10:28.477Z,45.00
2019-03-27T16:12:49.823Z,44.90
2019-03-27T16:15:13.773Z,45.20
2019-03-27T16:17:36.915Z,45.20
2019-03-27T16:19:58.188Z,45.40
2019-03-27T16:22:20.703Z,46.00
2019-03-27T16:24:41.922Z,46.60
2019-03-27T16:27:04.624Z,46.40
2019-03-27T16:29:26.343Z,46.70
2019-03-27T16:31:47.580Z,46.70
2019-03-27T16:34:08.770Z,47.00
2019-03-27T16:36:29.978Z,47.20
2019-03-27T16:38:51.683Z,47.20
2019-03-27T16:41:12.964Z,47.20
2019-03-27T16:43:35.446Z,47.40
2019-03-27T16:45:56.643Z,46.10
2019-03-27T16:48:18.022Z,46.30
2019-03-27T16:50:41.933Z,45.90
2019-03-27T16:53:04.062Z,46.10
2019-03-27T16:55:25.710Z,46.50
2019-03-27T16:57:46.970Z,47.00
2019-03-27T17:00:09.726Z,47.00
2019-03-27T17:02:30.953Z,47.00
2019-03-27T17:04:53.277Z,46.80
2019-03-27T17:07:14.496Z,47.40
2019-03-27T17:09:35.701Z,47.40
2019-03-27T17:11:56.923Z,47.20
2019-03-27T17:14:18.129Z,47.20
2019-03-27T17:16:39.797Z,47.50
2019-03-27T17:19:01.285Z,47.70
2019-03-27T17:21:22.565Z,47.90
2019-03-27T17:23:43.878Z,48.20
2019-03-27T17:26:05.140Z,48.40
2019-03-27T17:28:26.338Z,48.70
2019-03-27T17:30:47.537Z,49.00
2019-03-27T17:33:08.746Z,49.00
2019-03-27T17:35:29.979Z,49.50
2019-03-27T17:37:51.192Z,49.80
2019-03-27T17:40:18.457Z,50.10
2019-03-27T17:42:39.773Z,50.50
2019-03-27T17:45:01.015Z,50.70
2019-03-27T17:47:22.476Z,51.00
2019-03-27T17:49:43.702Z,51.20
2019-03-27T17:52:04.882Z,51.40
2019-03-27T17:54:26.099Z,51.90
2019-03-27T17:56:47.369Z,52.20
2019-03-27T17:59:08.601Z,52.40
2019-03-27T18:01:33.368Z,52.60
2019-03-27T18:03:54.582Z,52.80
2019-03-27T18:06:15.805Z,53.30
2019-03-27T18:08:37.002Z,53.50
2019-03-27T18:10:58.287Z,53.70
2019-03-27T18:13:20.798Z,53.90
2019-03-27T18:15:42.040Z,54.10
2019-03-27T18:18:03.306Z,54.00
2019-03-27T18:20:24.482Z,54.10
2019-03-27T18:22:45.813Z,54.10
2019-03-27T18:25:07.442Z,54.30
2019-03-27T18:27:29.699Z,54.40
2019-03-27T18:29:52.199Z,54.80
2019-03-27T18:32:13.457Z,55.20
2019-03-27T18:34:34.677Z,55.80
2019-03-27T18:36:55.905Z,56.50
2019-03-27T18:39:17.267Z,56.60
2019-03-27T18:41:38.567Z,56.60
2019-03-27T18:44:03.076Z,56.80
2019-03-27T18:46:23.083Z,57.60
2019-03-27T18:48:44.302Z,58.40
2019-03-27T18:51:05.514Z,58.60
2019-03-27T18:53:26.742Z,59.00
2019-03-27T18:55:48.318Z,59.60
2019-03-27T18:58:09.909Z,59.90
2019-03-27T19:00:31.164Z,60.20
2019-03-27T19:02:52.654Z,60.90
2019-03-27T19:05:14.067Z,61.40
2019-03-27T19:07:35.304Z,61.70
2019-03-27T19:09:56.661Z,61.80
2019-03-27T19:12:19.656Z,62.60
2019-03-27T19:14:41.460Z,62.50
2019-03-27T19:17:02.664Z,61.50
2019-03-27T19:19:23.906Z,60.70
2019-03-27T19:21:45.197Z,60.70
2019-03-27T19:24:16.172Z,58.60
2019-03-27T19:26:33.203Z,58.50
2019-03-27T19:28:55.019Z,58.20
2019-03-27T19:31:16.219Z,58.40
2019-03-27T19:33:37.564Z,58.70
2019-03-27T19:35:58.817Z,59.20
2019-03-27T19:38:20.014Z,59.60
2019-03-27T19:40:50.321Z,60.00
2019-03-27T19:43:11.529Z,60.70
2019-03-27T19:45:32.920Z,61.90
2019-03-27T19:47:54.115Z,62.00
2019-03-27T19:50:18.659Z,62.80
2019-03-27T19:52:40.026Z,63.20
2019-03-27T19:55:01.285Z,63.60
2019-03-27T19:57:22.596Z,63.90
2019-03-27T19:59:43.840Z,64.50
2019-03-27T20:02:05.065Z,65.70
2019-03-27T20:04:26.304Z,65.90
2019-03-27T20:06:48.168Z,66.50
2019-03-27T20:09:09.615Z,68.00
2019-03-27T20:11:31.134Z,67.70
2019-03-27T20:13:52.674Z,67.70
2019-03-27T20:16:14.140Z,67.70
2019-03-27T20:18:35.487Z,67.90
2019-03-27T20:20:56.852Z,67.80
2019-03-27T20:23:18.184Z,69.30
2019-03-27T20:25:40.484Z,68.90
2019-03-27T20:28:02.034Z,69.00
2019-03-27T20:30:26.594Z,69.00
2019-03-27T20:32:47.007Z,69.40
2019-03-27T20:35:08.419Z,69.70
2019-03-27T20:37:32.922Z,70.00
2019-03-27T20:39:54.314Z,71.20
2019-03-27T20:42:15.783Z,71.10
2019-03-27T20:44:37.125Z,71.30
2019-03-27T20:46:59.783Z,71.40
2019-03-27T20:49:21.018Z,71.60
2019-03-27T20:51:42.281Z,71.60
2019-03-27T20:54:03.666Z,71.70
2019-03-27T20:56:25.153Z,71.80
2019-03-27T20:58:46.679Z,72.10
2019-03-27T21:01:11.104Z,72.50
2019-03-27T21:03:37.024Z,72.90
2019-03-27T21:06:00.485Z,73.00
2019-03-27T21:08:21.834Z,73.20
2019-03-27T21:10:43.098Z,73.30
2019-03-27T21:13:04.497Z,73.70
2019-03-27T21:15:25.855Z,73.90
2019-03-27T21:17:47.221Z,74.50
2019-03-27T21:20:08.800Z,75.60
2019-03-27T21:22:30.173Z,75.70
2019-03-27T21:24:51.499Z,76.10
2019-03-27T21:27:12.766Z,77.80
2019-03-27T21:29:34.115Z,77.80
2019-03-27T21:31:57.558Z,77.80
2019-03-27T21:34:19.497Z,78.40
2019-03-27T21:36:42.072Z,78.30
2019-03-27T21:39:06.156Z,78.90
2019-03-27T21:41:30.189Z,79.00
2019-03-27T21:43:51.459Z,79.40
2019-03-27T21:46:12.669Z,79.60
2019-03-27T21:48:33.889Z,79.30
2019-03-27T21:50:55.121Z,79.40
2019-03-27T21:53:16.422Z,79.40
2019-03-27T21:55:42.892Z,79.80
2019-03-27T21:58:02.215Z,80.00
2019-03-27T22:00:37.663Z,80.40
2019-03-27T22:02:58.988Z,80.50
2019-03-27T22:05:20.310Z,80.40
2019-03-27T22:07:44.597Z,80.60
2019-03-27T22:10:06.313Z,80.60
2019-03-27T22:12:27.638Z,80.10
2019-03-27T22:14:48.960Z,79.70
2019-03-27T22:17:19.041Z,79.70
2019-03-27T22:19:40.239Z,79.70
2019-03-27T22:22:01.448Z,79.60
2019-03-27T22:24:22.648Z,79.50
2019-03-27T22:26:43.850Z,79.40
2019-03-27T22:29:05.058Z,79.60
2019-03-27T22:31:26.515Z,79.50
2019-03-27T22:33:47.911Z,79.40
2019-03-27T22:36:09.134Z,79.70
2019-03-27T22:38:30.519Z,79.80
2019-03-27T22:40:51.808Z,79.70
2019-03-27T22:43:13.555Z,79.50
2019-03-27T22:45:34.799Z,79.50
2019-03-27T22:47:56.119Z,79.60
2019-03-27T22:50:17.357Z,79.80
2019-03-27T22:52:38.677Z,80.20
2019-03-27T22:55:11.997Z,80.70
2019-03-27T22:57:33.244Z,81.40
2019-03-27T22:59:54.446Z,81.50
2019-03-27T23:02:15.912Z,81.50
2019-03-27T23:04:37.159Z,81.20
2019-03-27T23:06:58.861Z,81.30
2019-03-27T23:09:20.410Z,81.40
2019-03-27T23:11:41.709Z,81.80
2019-03-27T23:14:03.011Z,82.50
2019-03-27T23:16:24.247Z,83.10
2019-03-27T23:18:45.454Z,82.90
2019-03-27T23:21:06.681Z,83.00
2019-03-27T23:23:28.058Z,82.80
2019-03-27T23:26:02.163Z,83.00
2019-03-27T23:28:12.729Z,83.00
2019-03-27T23:30:35.162Z,83.10
2019-03-27T23:32:56.411Z,83.40
2019-03-27T23:35:18.246Z,83.80
2019-03-27T23:37:40.674Z,84.20
2019-03-27T23:40:03.880Z,84.50
2019-03-27T23:42:25.210Z,84.60
2019-03-27T23:44:46.403Z,84.90
2019-03-27T23:47:09.261Z,85.50
2019-03-27T23:49:30.584Z,85.60
2019-03-27T23:51:51.801Z,85.60
2019-03-27T23:54:13.003Z,85.80
2019-03-27T23:56:34.234Z,85.80
2019-03-27T23:58:55.471Z,86.30
